Terminal Aerodrome Forecast
Issued by NWS Charleston, WV

Current Version | Previous Version | Graphics & Text | Print | Product List | Glossary On
Versions: 1 2 3 4 5 6 7 8 9 10 11 12 13 14 15 16 17 18 19 20 21 22 23 24 25 26 27 28
000
FTUS41 KRLX 160545 AAC
TAFEKN
TAF AMD
KEKN 160545Z 1606/1706 28012G20KT P6SM SCT025 OVC035
      TEMPO 1606/1608 6SM -SHSN SCT015 OVC025
     FM160800 28010G17KT P6SM OVC025
      TEMPO 1608/1610 6SM -SHSN BKN015
     FM161000 27009KT P6SM BKN025
     FM161300 26009KT P6SM BKN110
     FM161700 25009KT P6SM SCT050
     FM162100 25008KT P6SM FEW250
     FM170200 23004KT P6SM FEW250=

USA.gov is the U.S. government's official web portal to all federal, state and local government web resources and services.